Time;durP1;ratioP1;P1;durP2;ratioP2;P2;SDS_P1;SDS_P2;PMS_P1;PMS_P2;Temp;Humidity;BMP_temperature;BMP_pressure;BME280_temperature;BME280_humidity;BME280_pressure;Samples;Min_cycle;Max_cycle;Signal;HPM_P1;HPM_P2
2023/11/06 00:01:48;;;;;;;4.88;2.25;;;;;;;;;;6220719;23;20019;-84
2023/11/06 00:04:18;;;;;;;4.63;2.03;;;;;;;;;;6219680;23;20016;-84
2023/11/06 00:06:49;;;;;;;4.43;2.00;;;;;;;;;;6221386;23;20012;-84
2023/11/06 00:09:19;;;;;;;4.95;2.35;;;;;;;;;;6247677;23;20016;-85
2023/11/06 00:11:49;;;;;;;7.15;2.60;;;;;;;;;;6219716;23;20017;-84
2023/11/06 00:14:19;;;;;;;5.72;1.98;;;;;;;;;;6219596;23;20031;-84
2023/11/06 00:16:51;;;;;;;5.03;2.10;;;;;;;;;;6247287;23;20023;-85
2023/11/06 00:19:35;;;;;;;5.88;2.13;;;;;;;;;;6222270;23;20324;-85
2023/11/06 00:22:26;;;;;;;5.28;2.88;;;;;;;;;;6196265;23;20016;-86
2023/11/06 00:24:57;;;;;;;6.13;2.17;;;;;;;;;;6230774;23;20329;-87
2023/11/06 00:27:27;;;;;;;5.43;1.80;;;;;;;;;;6245808;23;20012;-85
2023/11/06 00:29:58;;;;;;;5.25;2.08;;;;;;;;;;6219402;23;20351;-84
2023/11/06 00:32:28;;;;;;;5.10;1.80;;;;;;;;;;6218818;23;20051;-85
2023/11/06 00:34:58;;;;;;;9.88;2.10;;;;;;;;;;6248399;23;20016;-84
2023/11/06 00:37:28;;;;;;;4.28;1.65;;;;;;;;;;6246744;23;20012;-84
2023/11/06 00:39:58;;;;;;;5.30;2.00;;;;;;;;;;6245222;23;20012;-85
2023/11/06 00:42:28;;;;;;;4.50;1.92;;;;;;;;;;6217972;23;20024;-85
2023/11/06 00:44:59;;;;;;;5.55;2.25;;;;;;;;;;6255914;23;20019;-84
2023/11/06 00:47:29;;;;;;;6.93;2.10;;;;;;;;;;6220473;23;20020;-85
2023/11/06 00:49:59;;;;;;;6.80;2.35;;;;;;;;;;6244765;23;20039;-83
2023/11/06 00:52:31;;;;;;;5.07;1.90;;;;;;;;;;6228495;23;20329;-83
2023/11/06 00:55:01;;;;;;;6.15;2.15;;;;;;;;;;6192679;23;20016;-83
2023/11/06 00:57:31;;;;;;;4.70;1.85;;;;;;;;;;6245938;23;20348;-84
2023/11/06 01:00:04;;;;;;;5.93;1.90;;;;;;;;;;6194255;23;20023;-83
2023/11/06 01:02:35;;;;;;;5.10;1.95;;;;;;;;;;6256787;23;20451;-85
2023/11/06 01:05:06;;;;;;;8.98;2.47;;;;;;;;;;6223680;23;20016;-85
2023/11/06 01:07:36;;;;;;;8.13;2.47;;;;;;;;;;6232129;23;20018;-86
2023/11/06 01:10:07;;;;;;;6.47;2.38;;;;;;;;;;6258768;23;20023;-83
2023/11/06 01:12:39;;;;;;;5.50;2.05;;;;;;;;;;6224768;23;20016;-85
2023/11/06 01:15:09;;;;;;;;;;;;;;;;;;6235635;23;20004;-83
2023/11/06 01:17:41;;;;;;;4.95;1.75;;;;;;;;;;6271989;22;19943;-83
2023/11/06 01:20:12;;;;;;;4.53;1.85;;;;;;;;;;6225360;23;20019;-84
2023/11/06 01:22:43;;;;;;;5.50;1.50;;;;;;;;;;6246624;23;20332;-85
2023/11/06 01:25:14;;;;;;;5.57;1.73;;;;;;;;;;6218415;23;20024;-85
2023/11/06 01:27:45;;;;;;;3.53;1.50;;;;;;;;;;6218022;23;20450;-84
2023/11/06 01:30:15;;;;;;;3.22;1.80;;;;;;;;;;6217570;23;20347;-84
2023/11/06 01:32:45;;;;;;;5.18;2.00;;;;;;;;;;6245293;22;20016;-84
2023/11/06 01:35:19;;;;;;;10.00;2.08;;;;;;;;;;6257347;23;20031;-85
2023/11/06 01:37:49;;;;;;;7.43;2.10;;;;;;;;;;6217888;23;20016;-86
2023/11/06 01:40:21;;;;;;;8.70;2.13;;;;;;;;;;6217440;23;20321;-83
2023/11/06 01:42:54;;;;;;;9.35;2.13;;;;;;;;;;6192747;23;20016;-83
2023/11/06 01:45:25;;;;;;;8.18;2.00;;;;;;;;;;6216885;23;20027;-84
2023/11/06 01:47:55;;;;;;;6.10;1.95;;;;;;;;;;6192988;23;20310;-84
2023/11/06 01:50:25;;;;;;;5.07;2.03;;;;;;;;;;6194051;23;20027;-85
2023/11/06 01:52:57;;;;;;;4.15;1.80;;;;;;;;;;6192549;23;20034;-85
2023/11/06 01:55:27;;;;;;;4.93;1.75;;;;;;;;;;6217264;23;20020;-83
2023/11/06 01:57:58;;;;;;;5.78;2.20;;;;;;;;;;6217348;23;20012;-83
2023/11/06 02:00:29;;;;;;;6.00;2.30;;;;;;;;;;6193134;23;20024;-87
2023/11/06 02:03:01;;;;;;;14.50;2.47;;;;;;;;;;6217899;23;20019;-83
2023/11/06 02:05:33;;;;;;;4.70;2.20;;;;;;;;;;6229234;23;20016;-84
2023/11/06 02:08:05;;;;;;;5.32;2.08;;;;;;;;;;6229287;23;20016;-84
2023/11/06 02:10:36;;;;;;;6.18;2.13;;;;;;;;;;6255631;23;20015;-83
2023/11/06 02:13:06;;;;;;;5.00;1.85;;;;;;;;;;6217172;23;20016;-86
2023/11/06 02:15:40;;;;;;;4.45;1.98;;;;;;;;;;6217468;23;20012;-83
2023/11/06 02:18:11;;;;;;;5.13;2.22;;;;;;;;;;6217117;23;20016;-85
2023/11/06 02:20:42;;;;;;;5.40;2.60;;;;;;;;;;6217526;23;20047;-84
2023/11/06 02:23:12;;;;;;;5.07;2.33;;;;;;;;;;6218495;23;20020;-85
2023/11/06 02:25:43;;;;;;;5.53;3.00;;;;;;;;;;6217576;23;20031;-87
2023/11/06 02:28:13;;;;;;;5.72;2.45;;;;;;;;;;6192440;23;20020;-86
2023/11/06 02:30:45;;;;;;;8.90;2.78;;;;;;;;;;6255079;23;20537;-84
2023/11/06 02:33:17;;;;;;;7.03;2.65;;;;;;;;;;6245437;23;20020;-86
2023/11/06 02:35:48;;;;;;;5.88;2.42;;;;;;;;;;6218079;23;20023;-85
2023/11/06 02:38:18;;;;;;;5.15;2.20;;;;;;;;;;6219058;23;20039;-85
2023/11/06 02:40:48;;;;;;;4.80;2.10;;;;;;;;;;6219213;23;20449;-85
2023/11/06 02:43:19;;;;;;;5.78;2.20;;;;;;;;;;6245194;23;20016;-84
2023/11/06 02:45:51;;;;;;;4.15;2.05;;;;;;;;;;6255428;23;20016;-84
2023/11/06 02:48:21;;;;;;;5.15;1.92;;;;;;;;;;6245244;23;20439;-84
2023/11/06 02:50:52;;;;;;;4.70;1.98;;;;;;;;;;6216742;23;20020;-83
2023/11/06 02:53:22;;;;;;;6.47;2.17;;;;;;;;;;6192418;23;20028;-84
2023/11/06 02:55:53;;;;;;;5.32;2.38;;;;;;;;;;6218067;23;20020;-84
2023/11/06 02:58:23;;;;;;;5.07;2.28;;;;;;;;;;6254829;23;20039;-83
2023/11/06 03:00:54;;;;;;;5.90;2.20;;;;;;;;;;6217214;23;20462;-85
2023/11/06 03:03:25;;;;;;;8.07;2.25;;;;;;;;;;6216500;23;20031;-83
2023/11/06 03:05:55;;;;;;;6.88;2.45;;;;;;;;;;6217136;23;20439;-84
2023/11/06 03:08:25;;;;;;;6.70;2.60;;;;;;;;;;6216571;23;20028;-83
2023/11/06 03:10:55;;;;;;;7.85;2.40;;;;;;;;;;6245004;23;20023;-85
2023/11/06 03:13:25;;;;;;;3.15;1.83;;;;;;;;;;6218419;23;20347;-84
2023/11/06 03:15:56;;;;;;;6.85;2.00;;;;;;;;;;6244850;23;20028;-84
2023/11/06 03:18:26;;;;;;;7.85;2.50;;;;;;;;;;6244252;23;20031;-83
2023/11/06 03:20:57;;;;;;;5.05;2.22;;;;;;;;;;6245145;23;20019;-83
2023/11/06 03:23:26;;;;;;;5.53;2.35;;;;;;;;;;6216346;23;20351;-83
2023/11/06 03:25:57;;;;;;;5.20;2.40;;;;;;;;;;6191508;23;20107;-83
2023/11/06 03:28:27;;;;;;;5.43;2.30;;;;;;;;;;6193083;23;20027;-83
2023/11/06 03:30:58;;;;;;;5.07;1.85;;;;;;;;;;6244462;23;20016;-84
2023/11/06 03:33:29;;;;;;;7.15;2.08;;;;;;;;;;6217120;23;20012;-86
2023/11/06 03:36:03;;;;;;;4.50;2.20;;;;;;;;;;6217410;23;20012;-84
2023/11/06 03:38:34;;;;;;;6.10;2.05;;;;;;;;;;6254721;23;20016;-86
2023/11/06 03:41:06;;;;;;;5.80;2.20;;;;;;;;;;6217836;23;20017;-83
2023/11/06 03:43:36;;;;;;;2.95;1.63;;;;;;;;;;6254652;23;20008;-86
2023/11/06 03:46:07;;;;;;;4.95;2.08;;;;;;;;;;6254781;23;20027;-84
2023/11/06 03:48:37;;;;;;;6.53;2.10;;;;;;;;;;6218092;23;20023;-85
2023/11/06 03:51:08;;;;;;;5.22;2.08;;;;;;;;;;6191857;23;20012;-84
2023/11/06 03:53:38;;;;;;;5.45;2.20;;;;;;;;;;6216650;23;20042;-85
2023/11/06 03:56:12;;;;;;;5.80;2.03;;;;;;;;;;6217911;23;20351;-85
2023/11/06 03:58:42;;;;;;;4.65;2.30;;;;;;;;;;6254343;23;20451;-85
2023/11/06 04:01:14;;;;;;;7.22;2.55;;;;;;;;;;6228091;23;20023;-84
2023/11/06 04:03:45;;;;;;;4.93;2.05;;;;;;;;;;6217078;23;20027;-84
2023/11/06 04:06:17;;;;;;;7.40;2.58;;;;;;;;;;6244458;23;20019;-84
2023/11/06 04:08:47;;;;;;;6.57;2.03;;;;;;;;;;6254635;23;20336;-86
2023/11/06 04:11:17;;;;;;;7.32;3.08;;;;;;;;;;6217885;23;20016;-84
2023/11/06 04:13:48;;;;;;;7.35;2.40;;;;;;;;;;6244790;23;20016;-83
2023/11/06 04:16:18;;;;;;;7.03;2.30;;;;;;;;;;6244275;23;20016;-83
2023/11/06 04:18:50;;;;;;;5.78;2.30;;;;;;;;;;6254880;23;20340;-83
2023/11/06 04:21:20;;;;;;;6.40;2.78;;;;;;;;;;6254677;23;20336;-83
2023/11/06 04:23:51;;;;;;;13.75;3.00;;;;;;;;;;6244539;23;20016;-86
2023/11/06 04:26:21;;;;;;;9.52;2.13;;;;;;;;;;6243960;23;20017;-83
2023/11/06 04:28:52;;;;;;;5.90;2.83;;;;;;;;;;6254808;23;20451;-85
2023/11/06 04:31:22;;;;;;;4.85;2.33;;;;;;;;;;6217791;23;20316;-83
2023/11/06 04:33:52;;;;;;;4.80;2.05;;;;;;;;;;6217975;23;20023;-83
2023/11/06 04:36:22;;;;;;;7.07;2.30;;;;;;;;;;6217970;23;20016;-83
2023/11/06 04:38:52;;;;;;;6.65;2.63;;;;;;;;;;6219688;23;20016;-82
2023/11/06 04:41:22;;;;;;;5.25;2.22;;;;;;;;;;6218607;23;20046;-82
2023/11/06 04:43:53;;;;;;;4.82;2.25;;;;;;;;;;6221031;23;20087;-82
2023/11/06 04:46:23;;;;;;;6.50;2.17;;;;;;;;;;6247410;23;20020;-82
2023/11/06 04:48:55;;;;;;;5.47;2.30;;;;;;;;;;6258000;23;20451;-82
2023/11/06 04:51:25;;;;;;;5.60;2.03;;;;;;;;;;6220851;23;20489;-85
2023/11/06 04:53:56;;;;;;;7.13;2.38;;;;;;;;;;6246579;23;20064;-86
2023/11/06 04:56:26;;;;;;;7.30;2.67;;;;;;;;;;6220622;23;20020;-85
2023/11/06 04:58:56;;;;;;;6.93;2.45;;;;;;;;;;6220457;23;20016;-82
2023/11/06 05:01:26;;;;;;;10.02;2.88;;;;;;;;;;6220009;23;20331;-82
2023/11/06 05:03:56;;;;;;;10.55;2.83;;;;;;;;;;6246514;23;20017;-84
2023/11/06 05:06:26;;;;;;;7.65;2.88;;;;;;;;;;6195415;23;20281;-83
2023/11/06 05:08:57;;;;;;;8.57;3.22;;;;;;;;;;6219382;23;20064;-85
2023/11/06 05:11:27;;;;;;;6.32;2.38;;;;;;;;;;6221530;23;20315;-85
2023/11/06 05:13:58;;;;;;;7.13;3.03;;;;;;;;;;6219303;23;20024;-86
2023/11/06 05:16:28;;;;;;;10.52;2.60;;;;;;;;;;6246833;23;20042;-86
2023/11/06 05:18:59;;;;;;;6.43;2.50;;;;;;;;;;6257287;23;20474;-85
2023/11/06 05:21:30;;;;;;;5.20;2.25;;;;;;;;;;6220439;23;20020;-84
2023/11/06 05:24:01;;;;;;;6.70;2.22;;;;;;;;;;6219589;23;20012;-82
2023/11/06 05:26:31;;;;;;;11.15;2.22;;;;;;;;;;6246222;23;20020;-82
2023/11/06 05:29:01;;;;;;;6.15;2.30;;;;;;;;;;6247203;23;20331;-82
2023/11/06 05:31:31;;;;;;;5.82;2.33;;;;;;;;;;6218057;23;20027;-84
2023/11/06 05:34:02;;;;;;;4.78;1.98;;;;;;;;;;6257332;23;20020;-84
2023/11/06 05:36:35;;;;;;;5.20;1.90;;;;;;;;;;6219154;23;20023;-83
2023/11/06 05:39:06;;;;;;;5.10;2.15;;;;;;;;;;6247180;23;20027;-82
2023/11/06 05:41:37;;;;;;;4.75;2.25;;;;;;;;;;6256667;23;20015;-83
2023/11/06 05:44:08;;;;;;;6.68;2.67;;;;;;;;;;6194555;23;20023;-83
2023/11/06 05:46:39;;;;;;;5.35;2.40;;;;;;;;;;6257008;23;20012;-86
2023/11/06 05:49:10;;;;;;;7.35;2.20;;;;;;;;;;6246067;23;20015;-85
2023/11/06 05:51:45;;;;;;;6.20;2.10;;;;;;;;;;6256469;23;20008;-86
2023/11/06 05:54:17;;;;;;;5.13;2.10;;;;;;;;;;6256807;23;20008;-85
2023/11/06 05:56:49;;;;;;;5.28;2.30;;;;;;;;;;6194598;23;20020;-85
2023/11/06 05:59:19;;;;;;;4.80;2.20;;;;;;;;;;6260292;23;20008;-84
2023/11/06 06:01:50;;;;;;;5.43;2.60;;;;;;;;;;6254411;23;19997;-83
2023/11/06 06:04:21;;;;;;;7.40;2.78;;;;;;;;;;6265558;23;20019;-86
2023/11/06 06:06:54;;;;;;;9.18;3.17;;;;;;;;;;6221685;23;20027;-86
2023/11/06 06:09:24;;;;;;;8.88;2.50;;;;;;;;;;6257074;23;20016;-85
2023/11/06 06:11:55;;;;;;;6.60;2.72;;;;;;;;;;6256848;23;20019;-85
2023/11/06 06:14:25;;;;;;;9.10;2.83;;;;;;;;;;6220783;23;20355;-83
2023/11/06 06:16:57;;;;;;;10.05;3.00;;;;;;;;;;6230520;23;20440;-84
2023/11/06 06:19:28;;;;;;;8.13;2.90;;;;;;;;;;6256117;23;20008;-86
2023/11/06 06:21:58;;;;;;;5.95;2.40;;;;;;;;;;6193471;23;20024;-86
2023/11/06 06:24:28;;;;;;;7.78;2.70;;;;;;;;;;6246974;23;20016;-83
2023/11/06 06:26:58;;;;;;;9.13;2.67;;;;;;;;;;6246484;23;20452;-83
2023/11/06 06:29:29;;;;;;;6.88;2.55;;;;;;;;;;6218871;23;20043;-83
2023/11/06 06:31:59;;;;;;;5.07;2.30;;;;;;;;;;6194424;23;20028;-86
2023/11/06 06:34:30;;;;;;;5.30;2.20;;;;;;;;;;6219760;23;20028;-84
2023/11/06 06:37:01;;;;;;;9.60;2.58;;;;;;;;;;6194549;23;20016;-85
2023/11/06 06:39:31;;;;;;;5.03;2.42;;;;;;;;;;6246483;23;20324;-83
2023/11/06 06:42:01;;;;;;;7.13;2.70;;;;;;;;;;6246018;23;20016;-83
2023/11/06 06:44:32;;;;;;;7.15;3.10;;;;;;;;;;6245972;23;20020;-84
2023/11/06 06:47:02;;;;;;;7.63;2.83;;;;;;;;;;6219975;23;20348;-86
2023/11/06 06:49:39;;;;;;;7.40;3.13;;;;;;;;;;6256557;23;20015;-85
2023/11/06 06:52:09;;;;;;;8.75;3.17;;;;;;;;;;6229870;23;20023;-86
2023/11/06 06:54:39;;;;;;;11.50;3.03;;;;;;;;;;6218048;23;20012;-85
2023/11/06 06:57:10;;;;;;;9.95;3.85;;;;;;;;;;6245627;23;20340;-85
2023/11/06 06:59:40;;;;;;;9.13;3.50;;;;;;;;;;6193888;23;20030;-85
2023/11/06 07:02:11;;;;;;;5.95;2.72;;;;;;;;;;6256866;23;20008;-84
2023/11/06 07:04:41;;;;;;;11.48;2.92;;;;;;;;;;6245504;23;20012;-86
2023/11/06 07:07:13;;;;;;;6.25;2.40;;;;;;;;;;6195253;23;20023;-85
2023/11/06 07:09:44;;;;;;;5.82;2.35;;;;;;;;;;6194196;23;20020;-86
2023/11/06 07:12:15;;;;;;;5.53;2.30;;;;;;;;;;6256495;23;20018;-86
2023/11/06 07:14:46;;;;;;;7.68;2.45;;;;;;;;;;6245917;23;20023;-85
2023/11/06 07:17:19;;;;;;;5.53;2.20;;;;;;;;;;6230752;23;20062;-84
2023/11/06 07:19:51;;;;;;;6.00;2.20;;;;;;;;;;6218313;23;20020;-85
2023/11/06 07:22:21;;;;;;;5.95;2.40;;;;;;;;;;6246763;23;20027;-84
2023/11/06 07:24:52;;;;;;;5.45;2.00;;;;;;;;;;6256377;23;20024;-85
2023/11/06 07:27:24;;;;;;;5.05;1.90;;;;;;;;;;6194539;23;20020;-85
2023/11/06 07:29:55;;;;;;;4.95;2.00;;;;;;;;;;6229718;23;20012;-85
2023/11/06 07:32:26;;;;;;;4.85;1.98;;;;;;;;;;6188610;23;20020;-84
2023/11/06 07:34:56;;;;;;;4.57;2.10;;;;;;;;;;6239693;23;20443;-85
2023/11/06 07:37:29;;;;;;;4.95;2.17;;;;;;;;;;6219679;23;20027;-85
2023/11/06 07:40:00;;;;;;;5.75;2.10;;;;;;;;;;6229736;23;20020;-85
2023/11/06 07:42:30;;;;;;;8.88;2.40;;;;;;;;;;6219497;23;20455;-85
2023/11/06 07:45:00;;;;;;;5.22;2.25;;;;;;;;;;6219249;23;20012;-85
2023/11/06 07:47:31;;;;;;;8.32;3.00;;;;;;;;;;6218713;23;20020;-85
2023/11/06 07:50:04;;;;;;;7.07;3.00;;;;;;;;;;6230516;23;20023;-85
2023/11/06 07:52:35;;;;;;;12.27;3.33;;;;;;;;;;6218116;23;20012;-85
2023/11/06 07:55:05;;;;;;;10.05;3.38;;;;;;;;;;6220078;23;20321;-84
2023/11/06 07:57:35;;;;;;;9.13;3.30;;;;;;;;;;6230093;23;20020;-86
2023/11/06 08:00:12;;;;;;;8.00;3.25;;;;;;;;;;6218253;23;20016;-85
2023/11/06 08:02:43;;;;;;;11.10;3.33;;;;;;;;;;6217238;23;20440;-85
2023/11/06 08:05:14;;;;;;;11.18;3.42;;;;;;;;;;6218480;23;20467;-85
2023/11/06 08:07:44;;;;;;;7.28;2.97;;;;;;;;;;6194340;23;20023;-86
2023/11/06 08:10:14;;;;;;;10.75;2.95;;;;;;;;;;6217859;23;20023;-85
2023/11/06 08:12:45;;;;;;;7.70;3.20;;;;;;;;;;6257821;23;20019;-85
2023/11/06 08:15:16;;;;;;;7.22;2.50;;;;;;;;;;6221898;23;20305;-85
2023/11/06 08:17:46;;;;;;;8.48;2.13;;;;;;;;;;6195736;23;20130;-85
2023/11/06 08:20:16;;;;;;;5.25;2.35;;;;;;;;;;6195235;23;20024;-85
2023/11/06 08:22:47;;;;;;;6.95;2.72;;;;;;;;;;6196443;23;20020;-86
2023/11/06 08:25:19;;;;;;;6.22;2.15;;;;;;;;;;6257891;23;20012;-85
2023/11/06 08:27:50;;;;;;;4.90;2.20;;;;;;;;;;6220439;23;20016;-86
2023/11/06 08:30:20;;;;;;;5.57;2.30;;;;;;;;;;6219169;23;20083;-85
2023/11/06 08:32:50;;;;;;;7.97;2.38;;;;;;;;;;6220815;23;20023;-85
2023/11/06 08:35:21;;;;;;;5.47;2.15;;;;;;;;;;6257596;23;20092;-85
2023/11/06 08:37:53;;;;;;;7.38;2.92;;;;;;;;;;6231386;23;20012;-84
2023/11/06 08:40:23;;;;;;;11.48;3.17;;;;;;;;;;6248151;23;20020;-85
2023/11/06 08:42:54;;;;;;;7.07;3.08;;;;;;;;;;6246773;23;20478;-85
2023/11/06 08:45:24;;;;;;;6.93;2.88;;;;;;;;;;6195660;23;20020;-85
2023/11/06 08:47:54;;;;;;;7.63;2.78;;;;;;;;;;6247678;23;20020;-84
2023/11/06 08:50:25;;;;;;;7.97;3.03;;;;;;;;;;6221034;23;20012;-84
2023/11/06 08:52:55;;;;;;;9.30;3.05;;;;;;;;;;6247654;23;20305;-85
2023/11/06 08:55:28;;;;;;;7.63;2.65;;;;;;;;;;6247007;23;20086;-84
2023/11/06 08:57:58;;;;;;;5.93;2.45;;;;;;;;;;6247109;23;20474;-84
2023/11/06 09:00:29;;;;;;;6.68;2.70;;;;;;;;;;6220730;23;20020;-83
2023/11/06 09:03:00;;;;;;;5.15;2.13;;;;;;;;;;6258088;23;20016;-84
2023/11/06 09:05:31;;;;;;;7.82;2.88;;;;;;;;;;6256691;23;20008;-84
2023/11/06 09:08:01;;;;;;;8.25;3.00;;;;;;;;;;6247423;23;20424;-84
2023/11/06 09:10:31;;;;;;;9.73;3.15;;;;;;;;;;6246340;23;20020;-84
2023/11/06 09:13:02;;;;;;;7.68;3.15;;;;;;;;;;6218228;23;20016;-84
2023/11/06 09:15:37;;;;;;;5.63;2.97;;;;;;;;;;6246752;23;20355;-84
2023/11/06 09:18:08;;;;;;;8.48;3.10;;;;;;;;;;6257277;23;20474;-84
2023/11/06 09:20:39;;;;;;;9.52;2.80;;;;;;;;;;6230980;23;20012;-85
2023/11/06 09:23:09;;;;;;;5.40;2.53;;;;;;;;;;6246815;23;20033;-84
2023/11/06 09:25:39;;;;;;;6.57;2.40;;;;;;;;;;6246863;23;20470;-84
2023/11/06 09:28:09;;;;;;;7.38;3.17;;;;;;;;;;6218418;23;20347;-84
2023/11/06 09:30:44;;;;;;;8.10;3.80;;;;;;;;;;6246859;23;20012;-84
2023/11/06 09:33:14;;;;;;;8.65;4.55;;;;;;;;;;6248143;23;20012;-84
2023/11/06 09:35:47;;;;;;;10.82;3.97;;;;;;;;;;6218596;23;20028;-84
2023/11/06 09:38:18;;;;;;;8.18;2.80;;;;;;;;;;6218886;23;20020;-84
2023/11/06 09:40:48;;;;;;;7.95;2.85;;;;;;;;;;6218893;23;20016;-84
2023/11/06 09:43:18;;;;;;;7.90;2.30;;;;;;;;;;6247153;23;20023;-85
2023/11/06 09:45:51;;;;;;;6.80;2.67;;;;;;;;;;6218945;23;20313;-84
2023/11/06 09:48:33;;;;;;;5.30;2.63;;;;;;;;;;6256719;23;20016;-85
2023/11/06 09:51:14;;;;;;;6.05;2.92;;;;;;;;;;6219848;23;20459;-85
2023/11/06 09:53:46;;;;;;;7.30;2.97;;;;;;;;;;6219844;23;20012;-85
2023/11/06 09:56:19;;;;;;;8.80;2.95;;;;;;;;;;6256782;23;20015;-85
2023/11/06 09:58:51;;;;;;;6.78;2.80;;;;;;;;;;6256602;23;20447;-85
2023/11/06 10:01:27;;;;;;;8.32;2.80;;;;;;;;;;6254551;23;20019;-85
2023/11/06 10:03:58;;;;;;;8.88;2.72;;;;;;;;;;6218789;23;20016;-86
2023/11/06 10:06:28;;;;;;;9.38;2.58;;;;;;;;;;6218781;23;20047;-86
2023/11/06 10:08:58;;;;;;;6.75;2.72;;;;;;;;;;6220218;23;20451;-86
2023/11/06 10:11:28;;;;;;;7.18;2.20;;;;;;;;;;6193299;23;20020;-85
2023/11/06 10:13:58;;;;;;;6.88;2.70;;;;;;;;;;6218291;23;20024;-85
2023/11/06 10:16:29;;;;;;;8.10;2.55;;;;;;;;;;6220021;23;20013;-83
2023/11/06 10:19:12;;;;;;;7.65;2.60;;;;;;;;;;6218505;23;20019;-84
2023/11/06 10:21:43;;;;;;;8.82;2.70;;;;;;;;;;6218836;23;20351;-84
2023/11/06 10:24:13;;;;;;;5.03;2.70;;;;;;;;;;6245180;23;20027;-85
2023/11/06 10:26:45;;;;;;;5.97;3.00;;;;;;;;;;6216540;23;20375;-84
2023/11/06 10:29:18;;;;;;;12.75;3.33;;;;;;;;;;6248765;23;20043;-84
2023/11/06 10:31:49;;;;;;;7.00;3.10;;;;;;;;;;6235862;23;20022;-86
2023/11/06 10:34:33;;;;;;;8.18;3.25;;;;;;;;;;6227577;23;20019;-85
2023/11/06 10:37:12;;;;;;;7.82;2.78;;;;;;;;;;6259255;23;20008;-84
2023/11/06 10:39:56;;;;;;;8.07;3.35;;;;;;;;;;6220204;23;20447;-85
2023/11/06 10:42:26;;;;;;;6.43;3.10;;;;;;;;;;6219383;23;20343;-83
2023/11/06 10:44:58;;;;;;;8.55;3.55;;;;;;;;;;6246337;23;20008;-83
2023/11/06 10:47:34;;;;;;;15.23;3.33;;;;;;;;;;6219373;23;20020;-81
2023/11/06 10:50:12;;;;;;;7.43;3.00;;;;;;;;;;6256529;23;20328;-82
2023/11/06 10:52:48;;;;;;;8.50;3.33;;;;;;;;;;6229787;23;20031;-82
2023/11/06 10:55:20;;;;;;;6.13;3.03;;;;;;;;;;6256557;23;20470;-80
2023/11/06 10:58:01;;;;;;;6.60;3.00;;;;;;;;;;6219525;23;20455;-82
2023/11/06 11:00:31;;;;;;;6.35;2.38;;;;;;;;;;6256131;23;20012;-81
2023/11/06 11:03:04;;;;;;;6.68;3.78;;;;;;;;;;6255822;23;20012;-81
2023/11/06 11:05:37;;;;;;;4.07;1.40;;;;;;;;;;6256251;23;20443;-81
2023/11/06 11:08:10;;;;;;;3.15;1.48;;;;;;;;;;6256176;23;20012;-81
2023/11/06 11:10:40;;;;;;;3.45;1.08;;;;;;;;;;6218853;23;20012;-82
2023/11/06 11:13:13;;;;;;;2.63;1.40;;;;;;;;;;6245612;23;20427;-81
2023/11/06 11:15:43;;;;;;;4.55;1.95;;;;;;;;;;6218146;23;20027;-81
2023/11/06 11:18:13;;;;;;;3.38;1.90;;;;;;;;;;6194002;23;20020;-82
2023/11/06 11:20:54;;;;;;;3.35;1.70;;;;;;;;;;6218955;23;20031;-81
2023/11/06 11:23:38;;;;;;;6.82;2.45;;;;;;;;;;6255858;23;20009;-83
2023/11/06 11:26:11;;;;;;;3.22;1.02;;;;;;;;;;6256110;23;20008;-82
2023/11/06 11:29:09;;;;;;;4.70;1.42;;;;;;;;;;6229561;23;20016;-82
2023/11/06 11:31:47;;;;;;;3.45;0.82;;;;;;;;;;6245567;23;20446;-81
2023/11/06 11:34:36;;;;;;;2.92;1.00;;;;;;;;;;6220372;23;20016;-85
2023/11/06 11:37:35;;;;;;;1.92;1.05;;;;;;;;;;6218798;23;20016;-84
2023/11/06 11:40:08;;;;;;;2.47;1.00;;;;;;;;;;6218223;23;20020;-85
2023/11/06 11:42:39;;;;;;;5.50;1.10;;;;;;;;;;6218302;23;20122;-81
2023/11/06 11:45:11;;;;;;;2.38;1.00;;;;;;;;;;6245200;23;20024;-83
2023/11/06 11:47:49;;;;;;;1.83;0.80;;;;;;;;;;6231542;23;20012;-84
2023/11/06 11:50:35;;;;;;;1.83;0.90;;;;;;;;;;6247612;23;20023;-84
2023/11/06 11:53:06;;;;;;;3.72;0.75;;;;;;;;;;6257148;23;20015;-83
2023/11/06 11:55:37;;;;;;;1.30;0.77;;;;;;;;;;6247400;23;20016;-81
2023/11/06 11:58:14;;;;;;;2.58;0.70;;;;;;;;;;6258142;23;20016;-80
2023/11/06 12:00:45;;;;;;;4.07;1.00;;;;;;;;;;6258086;23;20016;-81
2023/11/06 12:03:16;;;;;;;2.05;0.90;;;;;;;;;;6221493;23;20020;-80
2023/11/06 12:05:56;;;;;;;3.15;1.08;;;;;;;;;;6258186;23;20008;-79
2023/11/06 12:08:27;;;;;;;2.05;1.02;;;;;;;;;;6231756;23;20473;-80
2023/11/06 12:11:10;;;;;;;2.65;1.02;;;;;;;;;;6258754;23;20415;-81
2023/11/06 12:13:40;;;;;;;3.53;0.95;;;;;;;;;;6195815;23;20020;-79
2023/11/06 12:16:10;;;;;;;5.15;0.93;;;;;;;;;;6247785;23;20047;-78
2023/11/06 12:18:43;;;;;;;2.25;0.93;;;;;;;;;;6247682;23;20072;-82
2023/11/06 12:21:17;;;;;;;2.88;1.20;;;;;;;;;;6248477;23;20323;-78
2023/11/06 12:23:47;;;;;;;4.13;1.75;;;;;;;;;;6231652;23;20035;-77
2023/11/06 12:26:19;;;;;;;3.15;1.42;;;;;;;;;;6257138;23;20008;-78
2023/11/06 12:28:49;;;;;;;3.50;1.23;;;;;;;;;;6257642;23;20478;-80
2023/11/06 12:31:19;;;;;;;5.15;1.40;;;;;;;;;;6218544;23;20028;-81
2023/11/06 12:33:49;;;;;;;2.95;1.13;;;;;;;;;;6248016;23;20024;-79
2023/11/06 12:36:31;;;;;;;4.22;1.02;;;;;;;;;;6247428;23;20012;-78
2023/11/06 12:39:02;;;;;;;3.90;1.17;;;;;;;;;;6257696;23;20323;-78
2023/11/06 12:41:38;;;;;;;3.97;1.30;;;;;;;;;;6217174;23;20024;-79
2023/11/06 12:44:09;;;;;;;3.58;1.45;;;;;;;;;;6230341;23;20019;-78
2023/11/06 12:46:47;;;;;;;5.28;1.63;;;;;;;;;;6246743;23;20016;-77
2023/11/06 12:49:20;;;;;;;4.53;1.52;;;;;;;;;;6256577;23;20334;-81
2023/11/06 12:51:54;;;;;;;7.82;2.22;;;;;;;;;;6256474;23;20031;-78
2023/11/06 12:54:24;;;;;;;3.55;0.98;;;;;;;;;;6230383;23;20012;-80
2023/11/06 12:56:57;;;;;;;4.95;1.60;;;;;;;;;;6256636;23;20013;-80
2023/11/06 12:59:28;;;;;;;3.10;1.08;;;;;;;;;;6246750;23;20016;-78
2023/11/06 13:01:58;;;;;;;2.55;1.10;;;;;;;;;;6245830;23;20375;-79
2023/11/06 13:04:30;;;;;;;2.08;1.10;;;;;;;;;;6230372;23;20020;-79
2023/11/06 13:07:00;;;;;;;3.72;1.25;;;;;;;;;;6256858;23;20336;-79
2023/11/06 13:09:32;;;;;;;2.45;1.10;;;;;;;;;;6246775;23;20020;-79
2023/11/06 13:12:03;;;;;;;6.63;1.23;;;;;;;;;;6256304;23;20016;-80
2023/11/06 13:14:33;;;;;;;3.65;1.20;;;;;;;;;;6256431;23;20012;-79
2023/11/06 13:17:07;;;;;;;2.20;1.02;;;;;;;;;;6245987;23;20012;-81
2023/11/06 13:19:39;;;;;;;1.40;0.65;;;;;;;;;;6256553;23;20015;-79
2023/11/06 13:22:11;;;;;;;1.90;1.00;;;;;;;;;;6229872;23;20012;-81
2023/11/06 13:24:42;;;;;;;3.10;1.00;;;;;;;;;;6256321;23;20016;-80
2023/11/06 13:27:15;;;;;;;2.58;1.00;;;;;;;;;;6256051;23;20013;-78
2023/11/06 13:29:45;;;;;;;1.88;0.80;;;;;;;;;;6255933;23;20024;-79
2023/11/06 13:32:15;;;;;;;5.22;1.20;;;;;;;;;;6219936;23;20031;-80
2023/11/06 13:34:45;;;;;;;2.80;0.90;;;;;;;;;;6246303;23;20023;-81
2023/11/06 13:37:15;;;;;;;4.55;0.90;;;;;;;;;;6245991;23;20016;-84
2023/11/06 13:39:49;;;;;;;3.42;1.17;;;;;;;;;;6256038;23;20470;-82
2023/11/06 13:42:19;;;;;;;3.28;0.90;;;;;;;;;;6256155;23;20012;-80
2023/11/06 13:44:49;;;;;;;4.03;1.10;;;;;;;;;;6246161;23;20016;-83
2023/11/06 13:47:20;;;;;;;3.78;1.40;;;;;;;;;;6217391;23;20356;-80
2023/11/06 13:49:50;;;;;;;9.73;1.23;;;;;;;;;;6254861;23;20100;-81
2023/11/06 13:52:26;;;;;;;1.85;0.80;;;;;;;;;;6244995;23;20146;-81
2023/11/06 13:54:57;;;;;;;3.22;0.90;;;;;;;;;;6254873;23;20031;-81
2023/11/06 13:57:27;;;;;;;1.40;1.02;;;;;;;;;;6242946;23;20023;-81
2023/11/06 13:59:57;;;;;;;2.47;0.98;;;;;;;;;;6244093;23;20027;-83
2023/11/06 14:02:27;;;;;;;3.65;0.93;;;;;;;;;;6243923;23;20019;-84
2023/11/06 14:04:58;;;;;;;4.00;0.95;;;;;;;;;;6244760;23;20023;-81
2023/11/06 14:07:28;;;;;;;3.15;0.93;;;;;;;;;;6244063;23;20416;-79
2023/11/06 14:09:58;;;;;;;1.65;0.75;;;;;;;;;;6244869;23;20024;-81
2023/11/06 14:12:30;;;;;;;1.60;0.73;;;;;;;;;;6245037;23;20021;-83
2023/11/06 14:15:00;;;;;;;;;;;;;;;;;;6254317;23;20031;-83
2023/11/06 14:17:30;;;;;;;1.92;1.00;;;;;;;;;;6245188;23;19915;-82
2023/11/06 14:20:00;;;;;;;1.48;0.73;;;;;;;;;;6244765;23;20022;-82
2023/11/06 14:22:30;;;;;;;4.38;1.35;;;;;;;;;;6244734;23;20026;-82
2023/11/06 14:25:03;;;;;;;5.07;1.45;;;;;;;;;;6245089;23;20080;-83
2023/11/06 14:27:34;;;;;;;2.65;0.93;;;;;;;;;;6229368;23;20031;-84
2023/11/06 14:30:06;;;;;;;0.98;0.68;;;;;;;;;;6255541;23;20016;-80
2023/11/06 14:32:36;;;;;;;4.00;1.48;;;;;;;;;;6249011;23;20008;-83
2023/11/06 14:35:11;;;;;;;2.20;0.70;;;;;;;;;;6245206;23;20355;-82
2023/11/06 14:37:41;;;;;;;1.50;0.80;;;;;;;;;;6254482;23;20016;-80
2023/11/06 14:40:17;;;;;;;1.67;0.73;;;;;;;;;;6244635;23;20332;-83
2023/11/06 14:42:47;;;;;;;3.47;1.00;;;;;;;;;;6256101;23;20018;-83
2023/11/06 14:45:19;;;;;;;4.53;0.90;;;;;;;;;;6255500;23;20008;-82
2023/11/06 14:47:50;;;;;;;1.30;0.80;;;;;;;;;;6245620;23;20015;-82
2023/11/06 14:50:20;;;;;;;2.55;1.13;;;;;;;;;;6242216;23;20016;-81
2023/11/06 14:52:51;;;;;;;8.43;5.07;;;;;;;;;;6245096;23;20012;-81
2023/11/06 14:55:25;;;;;;;1.88;0.90;;;;;;;;;;6254648;23;20331;-84
2023/11/06 14:57:56;;;;;;;2.00;1.33;;;;;;;;;;6216809;23;20020;-86
2023/11/06 15:00:27;;;;;;;3.08;0.93;;;;;;;;;;6217058;23;20019;-82
2023/11/06 15:02:59;;;;;;;1.15;0.75;;;;;;;;;;6245029;23;20008;-80
2023/11/06 15:05:31;;;;;;;2.63;0.93;;;;;;;;;;6192617;23;20027;-82
2023/11/06 15:08:01;;;;;;;3.42;0.73;;;;;;;;;;6254536;23;20091;-82
2023/11/06 15:10:31;;;;;;;1.52;0.65;;;;;;;;;;6245492;23;20120;-83